sensor_id;sensor_type;location;lat;lon;timestamp;temperature;humidity
45008;DHT22;30743;52.008;5.644;2023-07-24T00:00:19;22.50;99.90
45008;DHT22;30743;52.008;5.644;2023-07-24T00:02:44;22.30;99.90
45008;DHT22;30743;52.008;5.644;2023-07-24T00:05:10;22.10;99.90
45008;DHT22;30743;52.008;5.644;2023-07-24T00:07:35;21.80;99.90
45008;DHT22;30743;52.008;5.644;2023-07-24T00:10:01;21.80;99.90
45008;DHT22;30743;52.008;5.644;2023-07-24T00:12:27;21.90;99.90
45008;DHT22;30743;52.008;5.644;2023-07-24T00:14:53;21.80;99.90
45008;DHT22;30743;52.008;5.644;2023-07-24T00:17:18;21.70;99.90
45008;DHT22;30743;52.008;5.644;2023-07-24T00:19:44;21.70;99.90
45008;DHT22;30743;52.008;5.644;2023-07-24T00:22:09;21.80;99.90
45008;DHT22;30743;52.008;5.644;2023-07-24T00:24:35;21.90;99.90
45008;DHT22;30743;52.008;5.644;2023-07-24T00:27:00;22.00;99.90
45008;DHT22;30743;52.008;5.644;2023-07-24T00:29:26;22.10;99.90
45008;DHT22;30743;52.008;5.644;2023-07-24T00:31:52;22.10;99.90
45008;DHT22;30743;52.008;5.644;2023-07-24T00:34:17;22.30;99.90
45008;DHT22;30743;52.008;5.644;2023-07-24T00:36:43;22.20;99.90
45008;DHT22;30743;52.008;5.644;2023-07-24T00:39:08;22.30;99.90
45008;DHT22;30743;52.008;5.644;2023-07-24T00:41:34;22.20;99.90
45008;DHT22;30743;52.008;5.644;2023-07-24T00:43:59;22.00;99.90
45008;DHT22;30743;52.008;5.644;2023-07-24T00:46:25;22.00;99.90
45008;DHT22;30743;52.008;5.644;2023-07-24T00:48:51;22.20;99.90
45008;DHT22;30743;52.008;5.644;2023-07-24T00:51:17;22.30;99.90
45008;DHT22;30743;52.008;5.644;2023-07-24T00:53:43;22.30;99.90
45008;DHT22;30743;52.008;5.644;2023-07-24T00:56:09;22.30;99.90
45008;DHT22;30743;52.008;5.644;2023-07-24T00:58:37;22.50;99.90
45008;DHT22;30743;52.008;5.644;2023-07-24T01:01:03;22.50;99.90
45008;DHT22;30743;52.008;5.644;2023-07-24T01:03:34;22.60;99.90
45008;DHT22;30743;52.008;5.644;2023-07-24T01:06:03;22.40;99.90
45008;DHT22;30743;52.008;5.644;2023-07-24T01:08:28;22.30;99.90
45008;DHT22;30743;52.008;5.644;2023-07-24T01:10:57;22.50;99.90
45008;DHT22;30743;52.008;5.644;2023-07-24T01:13:25;22.50;99.90
45008;DHT22;30743;52.008;5.644;2023-07-24T01:16:02;22.30;99.90
45008;DHT22;30743;52.008;5.644;2023-07-24T01:18:30;22.40;99.90
45008;DHT22;30743;52.008;5.644;2023-07-24T01:20:57;22.50;99.90
45008;DHT22;30743;52.008;5.644;2023-07-24T01:26:22;22.50;99.90
45008;DHT22;30743;52.008;5.644;2023-07-24T01:28:49;22.70;99.90
45008;DHT22;30743;52.008;5.644;2023-07-24T01:31:14;22.80;99.90
45008;DHT22;30743;52.008;5.644;2023-07-24T01:33:42;22.80;99.90
45008;DHT22;30743;52.008;5.644;2023-07-24T01:36:07;22.70;99.90
45008;DHT22;30743;52.008;5.644;2023-07-24T01:38:35;22.60;99.90
45008;DHT22;30743;52.008;5.644;2023-07-24T01:41:01;22.80;99.90
45008;DHT22;30743;52.008;5.644;2023-07-24T01:43:30;22.80;99.90
45008;DHT22;30743;52.008;5.644;2023-07-24T01:45:57;22.90;99.90
45008;DHT22;30743;52.008;5.644;2023-07-24T01:48:23;22.90;99.90
45008;DHT22;30743;52.008;5.644;2023-07-24T01:50:48;23.00;99.90
45008;DHT22;30743;52.008;5.644;2023-07-24T01:53:14;23.00;99.90
45008;DHT22;30743;52.008;5.644;2023-07-24T01:55:39;22.70;99.90
45008;DHT22;30743;52.008;5.644;2023-07-24T01:58:05;22.80;99.90
45008;DHT22;30743;52.008;5.644;2023-07-24T02:00:30;22.60;99.90
45008;DHT22;30743;52.008;5.644;2023-07-24T02:02:56;22.70;99.90
45008;DHT22;30743;52.008;5.644;2023-07-24T02:05:22;22.70;99.90
45008;DHT22;30743;52.008;5.644;2023-07-24T02:07:47;22.60;99.90
45008;DHT22;30743;52.008;5.644;2023-07-24T02:10:13;22.60;99.90
45008;DHT22;30743;52.008;5.644;2023-07-24T02:12:38;22.60;99.90
45008;DHT22;30743;52.008;5.644;2023-07-24T02:15:05;22.80;99.90
45008;DHT22;30743;52.008;5.644;2023-07-24T02:17:31;22.70;99.90
45008;DHT22;30743;52.008;5.644;2023-07-24T02:19:56;22.70;99.90
45008;DHT22;30743;52.008;5.644;2023-07-24T02:22:22;22.80;99.90
45008;DHT22;30743;52.008;5.644;2023-07-24T02:24:47;22.70;99.90
45008;DHT22;30743;52.008;5.644;2023-07-24T02:27:23;22.70;99.90
45008;DHT22;30743;52.008;5.644;2023-07-24T02:29:49;22.70;99.90
45008;DHT22;30743;52.008;5.644;2023-07-24T02:32:15;22.50;99.90
45008;DHT22;30743;52.008;5.644;2023-07-24T02:34:40;22.60;99.90
45008;DHT22;30743;52.008;5.644;2023-07-24T02:37:05;22.40;99.90
45008;DHT22;30743;52.008;5.644;2023-07-24T02:39:31;22.20;99.90
45008;DHT22;30743;52.008;5.644;2023-07-24T02:41:56;22.10;99.90
45008;DHT22;30743;52.008;5.644;2023-07-24T02:44:22;22.20;99.90
45008;DHT22;30743;52.008;5.644;2023-07-24T02:46:47;22.10;99.90
45008;DHT22;30743;52.008;5.644;2023-07-24T02:49:13;22.10;99.90
45008;DHT22;30743;52.008;5.644;2023-07-24T02:51:38;22.10;99.90
45008;DHT22;30743;52.008;5.644;2023-07-24T02:54:04;22.00;99.90
45008;DHT22;30743;52.008;5.644;2023-07-24T02:56:30;22.00;99.90
45008;DHT22;30743;52.008;5.644;2023-07-24T02:58:55;22.00;99.90
45008;DHT22;30743;52.008;5.644;2023-07-24T03:01:21;22.10;99.90
45008;DHT22;30743;52.008;5.644;2023-07-24T03:03:46;22.20;99.90
45008;DHT22;30743;52.008;5.644;2023-07-24T03:06:11;22.20;99.90
45008;DHT22;30743;52.008;5.644;2023-07-24T03:08:37;22.30;99.90
45008;DHT22;30743;52.008;5.644;2023-07-24T03:11:05;22.50;99.90
45008;DHT22;30743;52.008;5.644;2023-07-24T03:13:30;22.50;99.90
45008;DHT22;30743;52.008;5.644;2023-07-24T03:15:57;22.70;99.90
45008;DHT22;30743;52.008;5.644;2023-07-24T03:18:23;22.90;99.90
45008;DHT22;30743;52.008;5.644;2023-07-24T03:20:48;22.90;99.90
45008;DHT22;30743;52.008;5.644;2023-07-24T03:23:14;22.80;99.90
45008;DHT22;30743;52.008;5.644;2023-07-24T03:25:39;22.80;99.90
45008;DHT22;30743;52.008;5.644;2023-07-24T03:28:05;22.90;99.90
45008;DHT22;30743;52.008;5.644;2023-07-24T03:30:30;23.00;99.90
45008;DHT22;30743;52.008;5.644;2023-07-24T03:32:57;22.90;99.90
45008;DHT22;30743;52.008;5.644;2023-07-24T03:35:22;22.90;99.90
45008;DHT22;30743;52.008;5.644;2023-07-24T03:37:48;23.10;99.90
45008;DHT22;30743;52.008;5.644;2023-07-24T03:40:13;23.20;99.90
45008;DHT22;30743;52.008;5.644;2023-07-24T03:42:39;23.40;99.90
45008;DHT22;30743;52.008;5.644;2023-07-24T03:45:06;23.40;99.90
45008;DHT22;30743;52.008;5.644;2023-07-24T03:47:32;23.40;99.90
45008;DHT22;30743;52.008;5.644;2023-07-24T03:49:57;23.40;99.90
45008;DHT22;30743;52.008;5.644;2023-07-24T03:52:23;23.50;99.90
45008;DHT22;30743;52.008;5.644;2023-07-24T03:54:48;23.50;99.90
45008;DHT22;30743;52.008;5.644;2023-07-24T03:57:14;23.40;99.90
45008;DHT22;30743;52.008;5.644;2023-07-24T03:59:39;23.30;99.90
45008;DHT22;30743;52.008;5.644;2023-07-24T04:02:05;23.20;99.90
45008;DHT22;30743;52.008;5.644;2023-07-24T04:04:31;23.20;99.90
45008;DHT22;30743;52.008;5.644;2023-07-24T04:06:57;23.00;99.90
45008;DHT22;30743;52.008;5.644;2023-07-24T04:09:23;23.00;99.90
45008;DHT22;30743;52.008;5.644;2023-07-24T04:11:48;23.00;99.90
45008;DHT22;30743;52.008;5.644;2023-07-24T04:14:14;23.00;99.90
45008;DHT22;30743;52.008;5.644;2023-07-24T04:16:39;22.80;99.90
45008;DHT22;30743;52.008;5.644;2023-07-24T04:19:04;22.80;99.90
45008;DHT22;30743;52.008;5.644;2023-07-24T04:21:30;22.90;99.90
45008;DHT22;30743;52.008;5.644;2023-07-24T04:23:56;22.90;99.90
45008;DHT22;30743;52.008;5.644;2023-07-24T04:26:21;22.70;99.90
45008;DHT22;30743;52.008;5.644;2023-07-24T04:28:47;22.80;99.90
45008;DHT22;30743;52.008;5.644;2023-07-24T04:31:12;22.80;99.90
45008;DHT22;30743;52.008;5.644;2023-07-24T04:33:38;22.90;99.90
45008;DHT22;30743;52.008;5.644;2023-07-24T04:36:04;22.80;99.90
45008;DHT22;30743;52.008;5.644;2023-07-24T04:38:30;22.80;99.90
45008;DHT22;30743;52.008;5.644;2023-07-24T04:40:55;22.80;99.90
45008;DHT22;30743;52.008;5.644;2023-07-24T04:43:21;22.70;99.90
45008;DHT22;30743;52.008;5.644;2023-07-24T04:45:46;22.70;99.90
45008;DHT22;30743;52.008;5.644;2023-07-24T04:48:12;22.80;99.90
45008;DHT22;30743;52.008;5.644;2023-07-24T04:50:37;22.70;99.90
45008;DHT22;30743;52.008;5.644;2023-07-24T04:53:03;22.80;99.90
45008;DHT22;30743;52.008;5.644;2023-07-24T04:55:28;22.80;99.90
45008;DHT22;30743;52.008;5.644;2023-07-24T04:57:54;22.70;99.90
45008;DHT22;30743;52.008;5.644;2023-07-24T05:00:19;22.70;99.90
45008;DHT22;30743;52.008;5.644;2023-07-24T05:02:45;22.60;99.90
45008;DHT22;30743;52.008;5.644;2023-07-24T05:05:10;23.50;99.90
45008;DHT22;30743;52.008;5.644;2023-07-24T05:07:36;22.70;99.90
45008;DHT22;30743;52.008;5.644;2023-07-24T05:10:01;22.40;99.90
45008;DHT22;30743;52.008;5.644;2023-07-24T05:12:27;22.40;99.90
45008;DHT22;30743;52.008;5.644;2023-07-24T05:14:52;22.30;99.90
45008;DHT22;30743;52.008;5.644;2023-07-24T05:17:18;22.20;99.90
45008;DHT22;30743;52.008;5.644;2023-07-24T05:19:43;22.30;99.90
45008;DHT22;30743;52.008;5.644;2023-07-24T05:22:09;22.20;99.90
45008;DHT22;30743;52.008;5.644;2023-07-24T05:24:38;22.20;99.90
45008;DHT22;30743;52.008;5.644;2023-07-24T05:27:05;22.30;99.90
45008;DHT22;30743;52.008;5.644;2023-07-24T05:29:31;22.30;99.90
45008;DHT22;30743;52.008;5.644;2023-07-24T05:31:56;22.30;99.90
45008;DHT22;30743;52.008;5.644;2023-07-24T05:34:22;22.00;99.90
45008;DHT22;30743;52.008;5.644;2023-07-24T05:36:47;21.90;99.90
45008;DHT22;30743;52.008;5.644;2023-07-24T05:39:13;21.90;99.90
45008;DHT22;30743;52.008;5.644;2023-07-24T05:41:38;22.10;99.90
45008;DHT22;30743;52.008;5.644;2023-07-24T05:44:04;22.10;99.90
45008;DHT22;30743;52.008;5.644;2023-07-24T05:46:29;22.00;99.90
45008;DHT22;30743;52.008;5.644;2023-07-24T05:48:55;22.00;99.90
45008;DHT22;30743;52.008;5.644;2023-07-24T05:51:21;22.10;99.90
45008;DHT22;30743;52.008;5.644;2023-07-24T05:53:47;22.10;99.90
45008;DHT22;30743;52.008;5.644;2023-07-24T05:56:13;21.90;99.90
45008;DHT22;30743;52.008;5.644;2023-07-24T05:58:38;22.00;99.90
45008;DHT22;30743;52.008;5.644;2023-07-24T06:01:04;22.10;99.90
45008;DHT22;30743;52.008;5.644;2023-07-24T06:03:29;22.10;99.90
45008;DHT22;30743;52.008;5.644;2023-07-24T06:05:56;22.10;99.90
45008;DHT22;30743;52.008;5.644;2023-07-24T06:08:22;22.00;99.90
45008;DHT22;30743;52.008;5.644;2023-07-24T06:10:48;22.00;99.90
45008;DHT22;30743;52.008;5.644;2023-07-24T06:13:16;21.90;99.90
45008;DHT22;30743;52.008;5.644;2023-07-24T06:15:41;21.90;99.90
45008;DHT22;30743;52.008;5.644;2023-07-24T06:18:07;21.70;99.90
45008;DHT22;30743;52.008;5.644;2023-07-24T06:20:33;21.80;99.90
45008;DHT22;30743;52.008;5.644;2023-07-24T06:22:58;21.40;99.90
45008;DHT22;30743;52.008;5.644;2023-07-24T06:25:24;21.40;99.90
45008;DHT22;30743;52.008;5.644;2023-07-24T06:27:49;21.40;99.90
45008;DHT22;30743;52.008;5.644;2023-07-24T06:30:14;21.40;99.90
45008;DHT22;30743;52.008;5.644;2023-07-24T06:32:40;21.40;99.90
45008;DHT22;30743;52.008;5.644;2023-07-24T06:35:06;21.60;99.90
45008;DHT22;30743;52.008;5.644;2023-07-24T06:37:32;21.80;99.90
45008;DHT22;30743;52.008;5.644;2023-07-24T06:39:58;22.00;99.90
45008;DHT22;30743;52.008;5.644;2023-07-24T06:42:23;22.20;99.90
45008;DHT22;30743;52.008;5.644;2023-07-24T06:44:49;22.10;99.90
45008;DHT22;30743;52.008;5.644;2023-07-24T06:47:14;22.20;99.90
45008;DHT22;30743;52.008;5.644;2023-07-24T06:49:40;22.20;99.90
45008;DHT22;30743;52.008;5.644;2023-07-24T06:52:06;22.10;99.90
45008;DHT22;30743;52.008;5.644;2023-07-24T06:54:31;21.90;99.90
45008;DHT22;30743;52.008;5.644;2023-07-24T06:56:57;22.20;99.90
45008;DHT22;30743;52.008;5.644;2023-07-24T06:59:23;22.20;99.90
45008;DHT22;30743;52.008;5.644;2023-07-24T07:01:48;22.20;99.90
45008;DHT22;30743;52.008;5.644;2023-07-24T07:04:14;22.30;99.90
45008;DHT22;30743;52.008;5.644;2023-07-24T07:06:39;22.30;99.90
45008;DHT22;30743;52.008;5.644;2023-07-24T07:09:05;22.20;99.90
45008;DHT22;30743;52.008;5.644;2023-07-24T07:11:31;22.20;99.90
45008;DHT22;30743;52.008;5.644;2023-07-24T07:13:57;22.30;99.90
45008;DHT22;30743;52.008;5.644;2023-07-24T07:16:22;22.30;99.90
45008;DHT22;30743;52.008;5.644;2023-07-24T07:18:48;22.30;99.90
45008;DHT22;30743;52.008;5.644;2023-07-24T07:21:13;22.20;99.90
45008;DHT22;30743;52.008;5.644;2023-07-24T07:23:39;22.30;99.90
45008;DHT22;30743;52.008;5.644;2023-07-24T07:26:04;22.60;99.90
45008;DHT22;30743;52.008;5.644;2023-07-24T07:28:30;22.40;99.90
45008;DHT22;30743;52.008;5.644;2023-07-24T07:30:55;22.70;99.90
45008;DHT22;30743;52.008;5.644;2023-07-24T07:33:21;22.70;99.90
45008;DHT22;30743;52.008;5.644;2023-07-24T07:35:47;22.80;99.90
45008;DHT22;30743;52.008;5.644;2023-07-24T07:38:13;22.80;99.90
45008;DHT22;30743;52.008;5.644;2023-07-24T07:40:38;23.00;99.90
45008;DHT22;30743;52.008;5.644;2023-07-24T07:43:07;22.80;99.90
45008;DHT22;30743;52.008;5.644;2023-07-24T07:45:32;22.90;99.90
45008;DHT22;30743;52.008;5.644;2023-07-24T07:47:58;22.80;99.90
45008;DHT22;30743;52.008;5.644;2023-07-24T07:50:24;22.90;99.90
45008;DHT22;30743;52.008;5.644;2023-07-24T07:52:50;22.80;99.90
45008;DHT22;30743;52.008;5.644;2023-07-24T07:55:17;22.70;99.90
45008;DHT22;30743;52.008;5.644;2023-07-24T07:57:43;23.00;99.90
45008;DHT22;30743;52.008;5.644;2023-07-24T08:00:08;22.40;99.90
45008;DHT22;30743;52.008;5.644;2023-07-24T08:02:34;22.80;99.90
45008;DHT22;30743;52.008;5.644;2023-07-24T08:05:00;22.90;99.90
45008;DHT22;30743;52.008;5.644;2023-07-24T08:07:25;22.90;99.90
45008;DHT22;30743;52.008;5.644;2023-07-24T08:09:51;23.20;99.90
45008;DHT22;30743;52.008;5.644;2023-07-24T08:12:16;23.60;99.90
45008;DHT22;30743;52.008;5.644;2023-07-24T08:14:42;23.30;99.90
45008;DHT22;30743;52.008;5.644;2023-07-24T08:17:08;23.30;99.90
45008;DHT22;30743;52.008;5.644;2023-07-24T08:19:33;23.20;99.90
45008;DHT22;30743;52.008;5.644;2023-07-24T08:21:59;23.10;99.90
45008;DHT22;30743;52.008;5.644;2023-07-24T08:24:24;22.90;99.90
45008;DHT22;30743;52.008;5.644;2023-07-24T08:26:50;22.50;99.90
45008;DHT22;30743;52.008;5.644;2023-07-24T08:29:15;22.60;99.90
45008;DHT22;30743;52.008;5.644;2023-07-24T08:31:41;22.70;99.90
45008;DHT22;30743;52.008;5.644;2023-07-24T08:34:06;22.60;99.90
45008;DHT22;30743;52.008;5.644;2023-07-24T08:36:32;22.60;99.90
45008;DHT22;30743;52.008;5.644;2023-07-24T08:38:58;22.70;99.90
45008;DHT22;30743;52.008;5.644;2023-07-24T08:41:23;22.70;99.90
45008;DHT22;30743;52.008;5.644;2023-07-24T08:43:49;22.40;99.90
45008;DHT22;30743;52.008;5.644;2023-07-24T08:46:17;22.40;99.90
45008;DHT22;30743;52.008;5.644;2023-07-24T08:48:43;22.40;99.90
45008;DHT22;30743;52.008;5.644;2023-07-24T08:51:11;22.30;99.90
45008;DHT22;30743;52.008;5.644;2023-07-24T08:53:39;22.40;99.90
45008;DHT22;30743;52.008;5.644;2023-07-24T08:56:06;22.40;99.90
45008;DHT22;30743;52.008;5.644;2023-07-24T08:58:33;22.70;99.90
45008;DHT22;30743;52.008;5.644;2023-07-24T09:01:00;22.90;99.90
45008;DHT22;30743;52.008;5.644;2023-07-24T09:03:25;22.90;99.90
45008;DHT22;30743;52.008;5.644;2023-07-24T09:05:51;23.00;99.90
45008;DHT22;30743;52.008;5.644;2023-07-24T09:08:27;23.20;99.90
45008;DHT22;30743;52.008;5.644;2023-07-24T09:10:53;23.30;99.90
45008;DHT22;30743;52.008;5.644;2023-07-24T09:13:19;23.30;99.90
45008;DHT22;30743;52.008;5.644;2023-07-24T09:15:44;23.30;99.90
45008;DHT22;30743;52.008;5.644;2023-07-24T09:18:10;23.30;99.90
45008;DHT22;30743;52.008;5.644;2023-07-24T09:20:40;23.50;99.90
45008;DHT22;30743;52.008;5.644;2023-07-24T09:23:07;23.90;99.90
45008;DHT22;30743;52.008;5.644;2023-07-24T09:25:35;23.90;99.90
45008;DHT22;30743;52.008;5.644;2023-07-24T09:28:00;24.10;99.90
45008;DHT22;30743;52.008;5.644;2023-07-24T09:30:26;24.00;99.90
45008;DHT22;30743;52.008;5.644;2023-07-24T09:32:53;24.40;99.90
45008;DHT22;30743;52.008;5.644;2023-07-24T09:35:19;24.70;99.90
45008;DHT22;30743;52.008;5.644;2023-07-24T09:37:45;24.90;99.90
45008;DHT22;30743;52.008;5.644;2023-07-24T09:40:12;25.00;99.90
45008;DHT22;30743;52.008;5.644;2023-07-24T09:42:39;24.90;99.90
45008;DHT22;30743;52.008;5.644;2023-07-24T09:45:05;24.40;99.90
45008;DHT22;30743;52.008;5.644;2023-07-24T09:47:34;24.20;99.90
45008;DHT22;30743;52.008;5.644;2023-07-24T09:50:00;24.00;99.90
45008;DHT22;30743;52.008;5.644;2023-07-24T09:52:29;24.40;99.90
45008;DHT22;30743;52.008;5.644;2023-07-24T09:55:11;24.20;99.90
45008;DHT22;30743;52.008;5.644;2023-07-24T09:57:37;24.10;99.90
45008;DHT22;30743;52.008;5.644;2023-07-24T10:00:03;24.10;99.90
45008;DHT22;30743;52.008;5.644;2023-07-24T10:02:29;24.30;99.90
45008;DHT22;30743;52.008;5.644;2023-07-24T10:04:55;24.50;99.90
45008;DHT22;30743;52.008;5.644;2023-07-24T10:07:22;24.80;99.90
45008;DHT22;30743;52.008;5.644;2023-07-24T10:09:49;24.50;99.90
45008;DHT22;30743;52.008;5.644;2023-07-24T10:12:18;24.40;99.90
45008;DHT22;30743;52.008;5.644;2023-07-24T10:14:46;24.70;99.90
45008;DHT22;30743;52.008;5.644;2023-07-24T10:17:12;24.70;99.90
45008;DHT22;30743;52.008;5.644;2023-07-24T10:19:42;24.80;99.90
45008;DHT22;30743;52.008;5.644;2023-07-24T10:22:20;25.00;99.90
45008;DHT22;30743;52.008;5.644;2023-07-24T10:24:49;24.80;99.90
45008;DHT22;30743;52.008;5.644;2023-07-24T10:27:14;25.00;99.90
45008;DHT22;30743;52.008;5.644;2023-07-24T10:29:40;24.70;99.90
45008;DHT22;30743;52.008;5.644;2023-07-24T10:32:18;24.80;99.90
45008;DHT22;30743;52.008;5.644;2023-07-24T10:34:43;24.70;99.90
45008;DHT22;30743;52.008;5.644;2023-07-24T10:37:09;25.00;99.90
45008;DHT22;30743;52.008;5.644;2023-07-24T10:39:39;25.40;99.90
45008;DHT22;30743;52.008;5.644;2023-07-24T10:42:10;25.60;99.90
45008;DHT22;30743;52.008;5.644;2023-07-24T10:44:36;25.50;99.90
45008;DHT22;30743;52.008;5.644;2023-07-24T10:47:02;25.50;99.90
45008;DHT22;30743;52.008;5.644;2023-07-24T10:49:28;25.30;99.90
45008;DHT22;30743;52.008;5.644;2023-07-24T10:51:58;25.00;99.90
45008;DHT22;30743;52.008;5.644;2023-07-24T10:54:24;24.90;99.90
45008;DHT22;30743;52.008;5.644;2023-07-24T10:56:49;24.70;99.90
45008;DHT22;30743;52.008;5.644;2023-07-24T10:59:15;24.80;99.90
45008;DHT22;30743;52.008;5.644;2023-07-24T11:01:40;24.70;99.90
45008;DHT22;30743;52.008;5.644;2023-07-24T11:04:07;24.80;99.90
45008;DHT22;30743;52.008;5.644;2023-07-24T11:06:32;24.90;99.90
45008;DHT22;30743;52.008;5.644;2023-07-24T11:08:59;24.40;99.90
45008;DHT22;30743;52.008;5.644;2023-07-24T11:11:29;24.70;99.90
45008;DHT22;30743;52.008;5.644;2023-07-24T11:13:55;24.70;99.90
45008;DHT22;30743;52.008;5.644;2023-07-24T11:16:20;24.70;99.90
45008;DHT22;30743;52.008;5.644;2023-07-24T11:18:50;24.50;99.90
45008;DHT22;30743;52.008;5.644;2023-07-24T11:21:17;24.70;99.90
45008;DHT22;30743;52.008;5.644;2023-07-24T11:23:50;24.60;99.90
45008;DHT22;30743;52.008;5.644;2023-07-24T11:26:18;25.00;99.90
45008;DHT22;30743;52.008;5.644;2023-07-24T11:28:44;25.10;99.90
45008;DHT22;30743;52.008;5.644;2023-07-24T11:31:09;25.30;99.90
45008;DHT22;30743;52.008;5.644;2023-07-24T11:33:36;25.00;99.90
45008;DHT22;30743;52.008;5.644;2023-07-24T11:36:02;25.20;99.90
45008;DHT22;30743;52.008;5.644;2023-07-24T11:38:28;25.60;99.90
45008;DHT22;30743;52.008;5.644;2023-07-24T11:40:54;25.90;99.90
45008;DHT22;30743;52.008;5.644;2023-07-24T11:43:22;26.00;99.90
45008;DHT22;30743;52.008;5.644;2023-07-24T11:45:48;26.20;99.90
45008;DHT22;30743;52.008;5.644;2023-07-24T11:48:17;25.60;99.90
45008;DHT22;30743;52.008;5.644;2023-07-24T11:50:45;25.30;99.90
45008;DHT22;30743;52.008;5.644;2023-07-24T11:53:21;24.70;99.90
45008;DHT22;30743;52.008;5.644;2023-07-24T11:55:49;24.80;99.90
45008;DHT22;30743;52.008;5.644;2023-07-24T11:58:15;25.00;99.90
45008;DHT22;30743;52.008;5.644;2023-07-24T12:00:41;25.10;99.90
45008;DHT22;30743;52.008;5.644;2023-07-24T12:03:07;24.80;99.90
45008;DHT22;30743;52.008;5.644;2023-07-24T12:05:43;24.90;99.90
45008;DHT22;30743;52.008;5.644;2023-07-24T12:08:09;24.60;99.90
45008;DHT22;30743;52.008;5.644;2023-07-24T12:10:38;24.50;99.90
45008;DHT22;30743;52.008;5.644;2023-07-24T12:13:04;24.70;99.90
45008;DHT22;30743;52.008;5.644;2023-07-24T12:15:30;24.80;99.90
45008;DHT22;30743;52.008;5.644;2023-07-24T12:17:56;24.70;99.90
45008;DHT22;30743;52.008;5.644;2023-07-24T12:20:23;24.20;99.90
45008;DHT22;30743;52.008;5.644;2023-07-24T12:22:48;23.90;99.90
45008;DHT22;30743;52.008;5.644;2023-07-24T12:25:14;23.50;99.90
45008;DHT22;30743;52.008;5.644;2023-07-24T12:27:41;23.40;99.90
45008;DHT22;30743;52.008;5.644;2023-07-24T12:30:07;23.50;99.90
45008;DHT22;30743;52.008;5.644;2023-07-24T12:32:33;23.60;99.90
45008;DHT22;30743;52.008;5.644;2023-07-24T12:34:59;23.70;99.90
45008;DHT22;30743;52.008;5.644;2023-07-24T12:37:24;23.50;99.90
45008;DHT22;30743;52.008;5.644;2023-07-24T12:39:50;23.30;99.90
45008;DHT22;30743;52.008;5.644;2023-07-24T12:42:16;23.50;99.90
45008;DHT22;30743;52.008;5.644;2023-07-24T12:44:42;23.40;99.90
45008;DHT22;30743;52.008;5.644;2023-07-24T12:47:08;23.80;99.90
45008;DHT22;30743;52.008;5.644;2023-07-24T12:49:34;24.20;99.90
45008;DHT22;30743;52.008;5.644;2023-07-24T12:51:59;24.40;99.90
45008;DHT22;30743;52.008;5.644;2023-07-24T12:54:25;24.40;99.90
45008;DHT22;30743;52.008;5.644;2023-07-24T12:56:51;24.60;99.90
45008;DHT22;30743;52.008;5.644;2023-07-24T12:59:19;24.50;99.90
45008;DHT22;30743;52.008;5.644;2023-07-24T13:01:45;24.60;99.90
45008;DHT22;30743;52.008;5.644;2023-07-24T13:04:11;25.10;99.90
45008;DHT22;30743;52.008;5.644;2023-07-24T13:06:37;25.10;99.90
45008;DHT22;30743;52.008;5.644;2023-07-24T13:09:02;25.30;99.90
45008;DHT22;30743;52.008;5.644;2023-07-24T13:11:28;25.50;99.90
45008;DHT22;30743;52.008;5.644;2023-07-24T13:13:54;25.60;99.90
45008;DHT22;30743;52.008;5.644;2023-07-24T13:16:20;25.70;99.90
45008;DHT22;30743;52.008;5.644;2023-07-24T13:18:46;25.50;99.90
45008;DHT22;30743;52.008;5.644;2023-07-24T13:21:11;25.40;99.90
45008;DHT22;30743;52.008;5.644;2023-07-24T13:23:37;25.50;99.90
45008;DHT22;30743;52.008;5.644;2023-07-24T13:26:02;25.40;99.90
45008;DHT22;30743;52.008;5.644;2023-07-24T13:28:28;25.30;99.90
45008;DHT22;30743;52.008;5.644;2023-07-24T13:30:54;25.40;99.90
45008;DHT22;30743;52.008;5.644;2023-07-24T13:33:20;25.30;99.90
45008;DHT22;30743;52.008;5.644;2023-07-24T13:35:47;25.20;99.90
45008;DHT22;30743;52.008;5.644;2023-07-24T13:38:13;25.40;99.90
45008;DHT22;30743;52.008;5.644;2023-07-24T13:40:39;25.50;99.90
45008;DHT22;30743;52.008;5.644;2023-07-24T13:43:05;25.80;99.90
45008;DHT22;30743;52.008;5.644;2023-07-24T13:45:30;25.70;99.90
45008;DHT22;30743;52.008;5.644;2023-07-24T13:47:57;25.70;99.90
45008;DHT22;30743;52.008;5.644;2023-07-24T13:50:23;26.00;99.90
45008;DHT22;30743;52.008;5.644;2023-07-24T13:52:48;26.30;99.90
45008;DHT22;30743;52.008;5.644;2023-07-24T13:55:14;26.50;99.90
45008;DHT22;30743;52.008;5.644;2023-07-24T13:57:40;26.30;99.90
45008;DHT22;30743;52.008;5.644;2023-07-24T14:00:06;26.20;99.90
45008;DHT22;30743;52.008;5.644;2023-07-24T14:02:32;26.00;99.90
45008;DHT22;30743;52.008;5.644;2023-07-24T14:04:57;26.00;99.90
45008;DHT22;30743;52.008;5.644;2023-07-24T14:07:23;26.00;99.90
45008;DHT22;30743;52.008;5.644;2023-07-24T14:09:48;26.00;99.90
45008;DHT22;30743;52.008;5.644;2023-07-24T14:12:14;26.10;99.90
45008;DHT22;30743;52.008;5.644;2023-07-24T14:14:39;26.10;99.90
45008;DHT22;30743;52.008;5.644;2023-07-24T14:17:05;26.10;99.90
45008;DHT22;30743;52.008;5.644;2023-07-24T14:19:30;26.10;99.90
45008;DHT22;30743;52.008;5.644;2023-07-24T14:21:56;26.40;99.90
45008;DHT22;30743;52.008;5.644;2023-07-24T14:24:21;26.40;99.90
45008;DHT22;30743;52.008;5.644;2023-07-24T14:26:47;26.50;99.90
45008;DHT22;30743;52.008;5.644;2023-07-24T14:29:13;26.70;99.90
45008;DHT22;30743;52.008;5.644;2023-07-24T14:31:42;26.80;99.90
45008;DHT22;30743;52.008;5.644;2023-07-24T14:34:08;27.00;99.90
45008;DHT22;30743;52.008;5.644;2023-07-24T14:36:36;27.20;99.90
45008;DHT22;30743;52.008;5.644;2023-07-24T14:39:02;27.20;99.90
45008;DHT22;30743;52.008;5.644;2023-07-24T14:41:28;27.20;99.90
45008;DHT22;30743;52.008;5.644;2023-07-24T14:43:53;27.00;99.90
45008;DHT22;30743;52.008;5.644;2023-07-24T14:46:19;26.80;99.90
45008;DHT22;30743;52.008;5.644;2023-07-24T14:48:44;26.70;99.90
45008;DHT22;30743;52.008;5.644;2023-07-24T14:51:10;26.50;99.90
45008;DHT22;30743;52.008;5.644;2023-07-24T14:53:36;26.50;99.90
45008;DHT22;30743;52.008;5.644;2023-07-24T14:56:04;26.50;99.90
45008;DHT22;30743;52.008;5.644;2023-07-24T14:58:29;26.50;99.90
45008;DHT22;30743;52.008;5.644;2023-07-24T15:00:55;26.50;99.90
45008;DHT22;30743;52.008;5.644;2023-07-24T15:03:21;26.60;99.90
45008;DHT22;30743;52.008;5.644;2023-07-24T15:05:47;26.50;99.90
45008;DHT22;30743;52.008;5.644;2023-07-24T15:08:13;26.60;99.90
45008;DHT22;30743;52.008;5.644;2023-07-24T15:10:38;26.60;99.90
45008;DHT22;30743;52.008;5.644;2023-07-24T15:13:04;26.70;99.90
45008;DHT22;30743;52.008;5.644;2023-07-24T15:15:29;26.70;99.90
45008;DHT22;30743;52.008;5.644;2023-07-24T15:17:56;26.40;99.90
45008;DHT22;30743;52.008;5.644;2023-07-24T15:20:21;26.50;99.90
45008;DHT22;30743;52.008;5.644;2023-07-24T15:22:47;26.50;99.90
45008;DHT22;30743;52.008;5.644;2023-07-24T15:25:13;26.20;99.90